Impacts TAF Board
For situational awareness. Not to be used for flight planning purposes.
IDs:

KBCE - Bryce Canyon Arpt, UT, US

Issued at 1737 UTC 02 Aug 2021
Updated at 2208 UTC 02 Aug 2021
Potential Impact None Slight Moderate High
Time2153Z 02/23Z 03/00Z 03/01Z 03/02Z 03/03Z 03/04Z 03/05Z 03/06Z 03/07Z 03/08Z 03/09Z 03/10Z 03/11Z>>
Type OBS PRVL PRVL PRVL PRVL PRVL PRVL PRVL PRVL PRVL PRVL PRVL PRVL PRVL
VIS 10 >6 >6 >6 >6 >6 >6 >6 >6 >6 >6 >6 >6 >6
CIG -- -- -- -- -- -- -- -- -- -- -- -- -- --
Cover FEW SCT SCT SCT FEW FEW FEW FEW FEW FEW FEW FEW FEW FEW
FltCat VFR VFR VFR VFR VFR VFR VFR VFR VFR VFR VFR VFR VFR VFR
WX -- -- -- -- -- -- -- -- -- -- -- -- -- --
WDir 310 310 310 310 310 310 310 310 310 310 310 310 310 310
WSpd 16 12 12 12 8 8 8 8 8 8 8 8 8 8
WGst 21 21 21 21 -- -- -- -- -- -- -- -- -- --
Raw TAF
KBCE 021737Z 0218/0318 32009KT P6SM SKC
  FM022100 31012G21KT P6SM FEW090 SCT120
  FM030200 31008KT P6SM FEW090


Raw METAR
KBCE 022153Z AUTO 31016G21KT 10SM FEW065 25/08 A3044 RMK AO2 SLP189 T02500078
KBCE 022053Z AUTO 31008G17KT 10SM CLR 24/08 A3045 RMK AO2 SLP195 T02440078 58011
KBCE 021953Z AUTO 29011G19KT 10SM CLR 24/08 A3047 RMK AO2 SLP199 T02440083

METAR Board
Radar Display
Forecast Discussion
For situational awareness. Not to be used for flight planning purposes.